Bacau, Romania
Current Conditions -  °F | °C
As of 6:00 AM on Saturday 22 Nov 2014 (Local Time) from LRBC Reporting Station
Broken Clouds Broken Clouds  
Wind Chill: 29°   Ceiling: 1900
Heat Index: 36°   Visibility: 6mi
Dew Point: 36°   Wind: 9mph
Humidity: 100%   Direction: 330°NNW
Pressure: 30.27"   Gusts: NA
Location:  46.58°N, 26.92°E
Report Text: LRBC 220300Z AUTO 33008KT 9000 BKN019 BKN035 02/02 Q1025
Loading
Personal Weather Stations






























Interactive Weather Map New forecast layout! Learn more

10-Day Weather Forecast

Advertisements
Track Severe Weather on mobile